sensor_id;sensor_type;location;lat;lon;timestamp;P1;durP1;ratioP1;P2;durP2;ratioP2
34200;SDS011;20469;55.638;37.670;2023-04-19T00:02:25;16.98;;;7.43;;
34200;SDS011;20469;55.638;37.670;2023-04-19T00:04:54;12.90;;;7.05;;
34200;SDS011;20469;55.638;37.670;2023-04-19T00:07:21;16.25;;;7.68;;
34200;SDS011;20469;55.638;37.670;2023-04-19T00:09:49;14.57;;;7.10;;
34200;SDS011;20469;55.638;37.670;2023-04-19T00:12:16;16.70;;;6.93;;
34200;SDS011;20469;55.638;37.670;2023-04-19T00:14:43;14.10;;;6.57;;
34200;SDS011;20469;55.638;37.670;2023-04-19T00:17:10;13.30;;;6.70;;
34200;SDS011;20469;55.638;37.670;2023-04-19T00:19:37;12.27;;;6.22;;
34200;SDS011;20469;55.638;37.670;2023-04-19T00:22:05;13.20;;;6.80;;
34200;SDS011;20469;55.638;37.670;2023-04-19T00:24:32;13.23;;;6.93;;
34200;SDS011;20469;55.638;37.670;2023-04-19T00:26:59;11.65;;;6.47;;
34200;SDS011;20469;55.638;37.670;2023-04-19T00:29:27;11.85;;;6.25;;
34200;SDS011;20469;55.638;37.670;2023-04-19T00:31:54;11.43;;;6.78;;
34200;SDS011;20469;55.638;37.670;2023-04-19T00:34:22;13.95;;;6.60;;
34200;SDS011;20469;55.638;37.670;2023-04-19T00:36:49;11.30;;;6.68;;
34200;SDS011;20469;55.638;37.670;2023-04-19T00:39:16;15.63;;;6.53;;
34200;SDS011;20469;55.638;37.670;2023-04-19T00:41:43;13.35;;;6.78;;
34200;SDS011;20469;55.638;37.670;2023-04-19T00:44:10;13.05;;;6.50;;
34200;SDS011;20469;55.638;37.670;2023-04-19T00:46:37;14.77;;;6.93;;
34200;SDS011;20469;55.638;37.670;2023-04-19T00:49:05;13.23;;;6.65;;
34200;SDS011;20469;55.638;37.670;2023-04-19T00:51:33;11.90;;;6.85;;
34200;SDS011;20469;55.638;37.670;2023-04-19T00:54:01;13.10;;;6.63;;
34200;SDS011;20469;55.638;37.670;2023-04-19T00:56:29;12.45;;;6.90;;
34200;SDS011;20469;55.638;37.670;2023-04-19T00:58:58;11.00;;;6.28;;
34200;SDS011;20469;55.638;37.670;2023-04-19T01:01:26;12.85;;;6.68;;
34200;SDS011;20469;55.638;37.670;2023-04-19T01:03:54;15.45;;;6.85;;
34200;SDS011;20469;55.638;37.670;2023-04-19T01:06:21;15.35;;;7.00;;
34200;SDS011;20469;55.638;37.670;2023-04-19T01:08:48;16.10;;;7.05;;
34200;SDS011;20469;55.638;37.670;2023-04-19T01:11:16;15.90;;;7.32;;
34200;SDS011;20469;55.638;37.670;2023-04-19T01:13:43;13.57;;;7.43;;
34200;SDS011;20469;55.638;37.670;2023-04-19T01:16:10;12.10;;;7.30;;
34200;SDS011;20469;55.638;37.670;2023-04-19T01:18:37;11.57;;;7.05;;
34200;SDS011;20469;55.638;37.670;2023-04-19T01:21:06;13.55;;;6.95;;
34200;SDS011;20469;55.638;37.670;2023-04-19T01:23:35;16.23;;;7.25;;
34200;SDS011;20469;55.638;37.670;2023-04-19T01:26:04;12.02;;;7.13;;
34200;SDS011;20469;55.638;37.670;2023-04-19T01:28:32;14.32;;;7.55;;
34200;SDS011;20469;55.638;37.670;2023-04-19T01:30:59;16.67;;;7.80;;
34200;SDS011;20469;55.638;37.670;2023-04-19T01:33:26;14.75;;;7.28;;
34200;SDS011;20469;55.638;37.670;2023-04-19T01:35:53;15.15;;;6.97;;
34200;SDS011;20469;55.638;37.670;2023-04-19T01:38:20;14.52;;;7.43;;
34200;SDS011;20469;55.638;37.670;2023-04-19T01:40:47;13.25;;;7.47;;
34200;SDS011;20469;55.638;37.670;2023-04-19T01:43:16;12.13;;;7.07;;
34200;SDS011;20469;55.638;37.670;2023-04-19T01:45:44;10.13;;;7.00;;
34200;SDS011;20469;55.638;37.670;2023-04-19T01:48:11;15.27;;;8.15;;
34200;SDS011;20469;55.638;37.670;2023-04-19T01:50:38;12.25;;;6.97;;
34200;SDS011;20469;55.638;37.670;2023-04-19T01:53:05;15.02;;;7.68;;
34200;SDS011;20469;55.638;37.670;2023-04-19T01:55:33;16.13;;;7.45;;
34200;SDS011;20469;55.638;37.670;2023-04-19T01:58:00;14.77;;;7.57;;
34200;SDS011;20469;55.638;37.670;2023-04-19T02:00:27;16.42;;;8.02;;
34200;SDS011;20469;55.638;37.670;2023-04-19T02:02:54;12.68;;;7.55;;
34200;SDS011;20469;55.638;37.670;2023-04-19T02:05:22;13.00;;;7.82;;
34200;SDS011;20469;55.638;37.670;2023-04-19T02:07:50;13.70;;;7.53;;
34200;SDS011;20469;55.638;37.670;2023-04-19T02:10:17;15.55;;;7.35;;
34200;SDS011;20469;55.638;37.670;2023-04-19T02:12:46;12.75;;;7.28;;
34200;SDS011;20469;55.638;37.670;2023-04-19T02:15:13;13.07;;;7.18;;
34200;SDS011;20469;55.638;37.670;2023-04-19T02:17:41;15.32;;;7.97;;
34200;SDS011;20469;55.638;37.670;2023-04-19T02:20:08;14.05;;;7.65;;
34200;SDS011;20469;55.638;37.670;2023-04-19T02:22:36;14.98;;;7.97;;
34200;SDS011;20469;55.638;37.670;2023-04-19T02:25:03;12.63;;;7.78;;
34200;SDS011;20469;55.638;37.670;2023-04-19T02:27:31;15.90;;;8.15;;
34200;SDS011;20469;55.638;37.670;2023-04-19T02:29:58;13.82;;;7.93;;
34200;SDS011;20469;55.638;37.670;2023-04-19T02:32:25;14.27;;;8.02;;
34200;SDS011;20469;55.638;37.670;2023-04-19T02:34:53;13.10;;;7.93;;
34200;SDS011;20469;55.638;37.670;2023-04-19T02:37:20;14.15;;;7.78;;
34200;SDS011;20469;55.638;37.670;2023-04-19T02:39:50;14.60;;;7.72;;
34200;SDS011;20469;55.638;37.670;2023-04-19T02:42:17;13.27;;;7.65;;
34200;SDS011;20469;55.638;37.670;2023-04-19T02:44:44;13.68;;;7.35;;
34200;SDS011;20469;55.638;37.670;2023-04-19T02:47:11;13.18;;;7.35;;
34200;SDS011;20469;55.638;37.670;2023-04-19T02:49:38;14.70;;;7.63;;
34200;SDS011;20469;55.638;37.670;2023-04-19T02:52:07;12.68;;;7.47;;
34200;SDS011;20469;55.638;37.670;2023-04-19T02:54:34;15.38;;;7.80;;
34200;SDS011;20469;55.638;37.670;2023-04-19T02:57:01;11.70;;;7.28;;
34200;SDS011;20469;55.638;37.670;2023-04-19T02:59:28;14.95;;;7.88;;
34200;SDS011;20469;55.638;37.670;2023-04-19T03:01:55;17.02;;;8.00;;
34200;SDS011;20469;55.638;37.670;2023-04-19T03:04:23;12.18;;;7.28;;
34200;SDS011;20469;55.638;37.670;2023-04-19T03:06:50;14.90;;;7.68;;
34200;SDS011;20469;55.638;37.670;2023-04-19T03:09:18;16.13;;;7.85;;
34200;SDS011;20469;55.638;37.670;2023-04-19T03:11:48;13.52;;;7.57;;
34200;SDS011;20469;55.638;37.670;2023-04-19T03:14:15;15.57;;;6.93;;
34200;SDS011;20469;55.638;37.670;2023-04-19T03:16:42;14.95;;;7.25;;
34200;SDS011;20469;55.638;37.670;2023-04-19T03:19:09;14.38;;;7.45;;
34200;SDS011;20469;55.638;37.670;2023-04-19T03:21:36;11.52;;;7.55;;
34200;SDS011;20469;55.638;37.670;2023-04-19T03:24:04;16.40;;;7.35;;
34200;SDS011;20469;55.638;37.670;2023-04-19T03:26:31;13.93;;;7.22;;
34200;SDS011;20469;55.638;37.670;2023-04-19T03:28:58;15.25;;;8.45;;
34200;SDS011;20469;55.638;37.670;2023-04-19T03:31:26;15.48;;;7.22;;
34200;SDS011;20469;55.638;37.670;2023-04-19T03:33:54;18.17;;;6.97;;
34200;SDS011;20469;55.638;37.670;2023-04-19T03:36:21;13.82;;;6.95;;
34200;SDS011;20469;55.638;37.670;2023-04-19T03:38:48;16.63;;;7.22;;
34200;SDS011;20469;55.638;37.670;2023-04-19T03:41:18;16.45;;;7.13;;
34200;SDS011;20469;55.638;37.670;2023-04-19T03:43:46;16.75;;;7.35;;
34200;SDS011;20469;55.638;37.670;2023-04-19T03:46:13;18.55;;;6.75;;
34200;SDS011;20469;55.638;37.670;2023-04-19T03:48:41;15.43;;;7.32;;
34200;SDS011;20469;55.638;37.670;2023-04-19T03:51:08;15.25;;;7.20;;
34200;SDS011;20469;55.638;37.670;2023-04-19T03:53:35;17.15;;;7.63;;
34200;SDS011;20469;55.638;37.670;2023-04-19T03:56:03;13.18;;;6.75;;
34200;SDS011;20469;55.638;37.670;2023-04-19T03:58:30;11.88;;;7.00;;
34200;SDS011;20469;55.638;37.670;2023-04-19T04:00:58;16.75;;;6.90;;
34200;SDS011;20469;55.638;37.670;2023-04-19T04:03:25;12.60;;;7.22;;
34200;SDS011;20469;55.638;37.670;2023-04-19T04:05:53;14.55;;;7.13;;
34200;SDS011;20469;55.638;37.670;2023-04-19T04:08:20;13.18;;;6.97;;
34200;SDS011;20469;55.638;37.670;2023-04-19T04:10:47;17.10;;;7.50;;
34200;SDS011;20469;55.638;37.670;2023-04-19T04:13:14;14.15;;;7.68;;
34200;SDS011;20469;55.638;37.670;2023-04-19T04:15:41;16.33;;;7.70;;
34200;SDS011;20469;55.638;37.670;2023-04-19T04:18:09;18.55;;;7.30;;
34200;SDS011;20469;55.638;37.670;2023-04-19T04:20:36;17.23;;;7.07;;
34200;SDS011;20469;55.638;37.670;2023-04-19T04:23:03;17.95;;;7.47;;
34200;SDS011;20469;55.638;37.670;2023-04-19T04:25:30;15.35;;;7.90;;
34200;SDS011;20469;55.638;37.670;2023-04-19T04:27:58;17.13;;;7.32;;
34200;SDS011;20469;55.638;37.670;2023-04-19T04:30:25;13.73;;;7.10;;
34200;SDS011;20469;55.638;37.670;2023-04-19T04:32:54;13.77;;;7.35;;
34200;SDS011;20469;55.638;37.670;2023-04-19T04:35:23;12.77;;;7.10;;
34200;SDS011;20469;55.638;37.670;2023-04-19T04:37:51;10.73;;;6.97;;
34200;SDS011;20469;55.638;37.670;2023-04-19T04:40:22;19.88;;;7.35;;
34200;SDS011;20469;55.638;37.670;2023-04-19T04:42:49;12.90;;;7.15;;
34200;SDS011;20469;55.638;37.670;2023-04-19T04:45:18;13.07;;;7.18;;
34200;SDS011;20469;55.638;37.670;2023-04-19T04:47:45;16.42;;;7.45;;
34200;SDS011;20469;55.638;37.670;2023-04-19T04:50:12;16.00;;;7.45;;
34200;SDS011;20469;55.638;37.670;2023-04-19T04:52:40;17.25;;;7.50;;
34200;SDS011;20469;55.638;37.670;2023-04-19T04:55:07;14.43;;;7.63;;
34200;SDS011;20469;55.638;37.670;2023-04-19T04:57:35;14.60;;;7.35;;
34200;SDS011;20469;55.638;37.670;2023-04-19T05:00:02;15.77;;;7.53;;
34200;SDS011;20469;55.638;37.670;2023-04-19T05:02:31;16.23;;;7.93;;
34200;SDS011;20469;55.638;37.670;2023-04-19T05:04:59;25.92;;;7.85;;
34200;SDS011;20469;55.638;37.670;2023-04-19T05:07:26;18.35;;;7.75;;
34200;SDS011;20469;55.638;37.670;2023-04-19T05:09:53;15.00;;;7.57;;
34200;SDS011;20469;55.638;37.670;2023-04-19T05:12:20;16.20;;;7.53;;
34200;SDS011;20469;55.638;37.670;2023-04-19T05:14:48;64.65;;;10.10;;
34200;SDS011;20469;55.638;37.670;2023-04-19T05:17:15;17.15;;;7.63;;
34200;SDS011;20469;55.638;37.670;2023-04-19T05:19:42;20.27;;;7.43;;
34200;SDS011;20469;55.638;37.670;2023-04-19T05:22:09;17.02;;;8.07;;
34200;SDS011;20469;55.638;37.670;2023-04-19T05:24:36;23.25;;;8.43;;
34200;SDS011;20469;55.638;37.670;2023-04-19T05:27:05;18.00;;;7.75;;
34200;SDS011;20469;55.638;37.670;2023-04-19T05:29:32;17.40;;;7.95;;
34200;SDS011;20469;55.638;37.670;2023-04-19T05:32:00;24.17;;;8.38;;
34200;SDS011;20469;55.638;37.670;2023-04-19T05:34:27;17.08;;;7.35;;
34200;SDS011;20469;55.638;37.670;2023-04-19T05:36:54;18.00;;;8.23;;
34200;SDS011;20469;55.638;37.670;2023-04-19T05:39:21;15.63;;;8.65;;
34200;SDS011;20469;55.638;37.670;2023-04-19T05:41:48;15.20;;;8.23;;
34200;SDS011;20469;55.638;37.670;2023-04-19T05:44:16;19.48;;;8.35;;
34200;SDS011;20469;55.638;37.670;2023-04-19T05:46:43;22.40;;;8.57;;
34200;SDS011;20469;55.638;37.670;2023-04-19T05:49:10;17.67;;;7.78;;
34200;SDS011;20469;55.638;37.670;2023-04-19T05:51:37;15.48;;;7.88;;
34200;SDS011;20469;55.638;37.670;2023-04-19T05:54:05;21.75;;;7.43;;
34200;SDS011;20469;55.638;37.670;2023-04-19T05:56:32;20.27;;;8.02;;
34200;SDS011;20469;55.638;37.670;2023-04-19T05:58:59;15.75;;;7.60;;
34200;SDS011;20469;55.638;37.670;2023-04-19T06:01:26;19.35;;;7.22;;
34200;SDS011;20469;55.638;37.670;2023-04-19T06:03:53;16.85;;;7.15;;
34200;SDS011;20469;55.638;37.670;2023-04-19T06:06:21;18.67;;;8.02;;
34200;SDS011;20469;55.638;37.670;2023-04-19T06:08:49;21.10;;;7.53;;
34200;SDS011;20469;55.638;37.670;2023-04-19T06:11:19;10.93;;;6.38;;
34200;SDS011;20469;55.638;37.670;2023-04-19T06:14:00;17.38;;;7.10;;
34200;SDS011;20469;55.638;37.670;2023-04-19T06:16:27;22.00;;;7.22;;
34200;SDS011;20469;55.638;37.670;2023-04-19T06:18:54;17.45;;;7.53;;
34200;SDS011;20469;55.638;37.670;2023-04-19T06:21:22;16.02;;;7.65;;
34200;SDS011;20469;55.638;37.670;2023-04-19T06:23:49;15.93;;;6.70;;
34200;SDS011;20469;55.638;37.670;2023-04-19T06:26:16;14.35;;;7.47;;
34200;SDS011;20469;55.638;37.670;2023-04-19T06:28:43;14.15;;;6.30;;
34200;SDS011;20469;55.638;37.670;2023-04-19T06:31:10;15.93;;;6.65;;
34200;SDS011;20469;55.638;37.670;2023-04-19T06:33:38;12.25;;;6.90;;
34200;SDS011;20469;55.638;37.670;2023-04-19T06:36:05;22.90;;;8.00;;
34200;SDS011;20469;55.638;37.670;2023-04-19T06:38:32;14.32;;;6.93;;
34200;SDS011;20469;55.638;37.670;2023-04-19T06:40:59;17.52;;;6.20;;
34200;SDS011;20469;55.638;37.670;2023-04-19T06:43:26;14.43;;;6.35;;
34200;SDS011;20469;55.638;37.670;2023-04-19T06:45:57;14.63;;;6.75;;
34200;SDS011;20469;55.638;37.670;2023-04-19T06:48:25;11.02;;;5.93;;
34200;SDS011;20469;55.638;37.670;2023-04-19T06:50:53;15.68;;;5.72;;
34200;SDS011;20469;55.638;37.670;2023-04-19T06:53:20;22.20;;;6.38;;
34200;SDS011;20469;55.638;37.670;2023-04-19T06:55:48;15.13;;;5.70;;
34200;SDS011;20469;55.638;37.670;2023-04-19T06:58:18;12.70;;;5.93;;
34200;SDS011;20469;55.638;37.670;2023-04-19T07:00:46;19.55;;;6.28;;
34200;SDS011;20469;55.638;37.670;2023-04-19T07:03:13;18.50;;;6.20;;
34200;SDS011;20469;55.638;37.670;2023-04-19T07:05:40;13.63;;;6.18;;
34200;SDS011;20469;55.638;37.670;2023-04-19T07:08:07;17.02;;;6.00;;
34200;SDS011;20469;55.638;37.670;2023-04-19T07:10:34;9.82;;;5.82;;
34200;SDS011;20469;55.638;37.670;2023-04-19T07:13:01;14.73;;;6.35;;
34200;SDS011;20469;55.638;37.670;2023-04-19T07:15:29;15.23;;;6.10;;
34200;SDS011;20469;55.638;37.670;2023-04-19T07:17:56;13.90;;;5.85;;
34200;SDS011;20469;55.638;37.670;2023-04-19T07:20:23;16.95;;;6.50;;
34200;SDS011;20469;55.638;37.670;2023-04-19T07:22:50;12.65;;;5.70;;
34200;SDS011;20469;55.638;37.670;2023-04-19T07:25:18;13.05;;;5.32;;
34200;SDS011;20469;55.638;37.670;2023-04-19T07:27:45;12.40;;;5.55;;
34200;SDS011;20469;55.638;37.670;2023-04-19T07:30:12;16.27;;;5.35;;
34200;SDS011;20469;55.638;37.670;2023-04-19T07:32:39;10.38;;;5.40;;
34200;SDS011;20469;55.638;37.670;2023-04-19T07:35:07;14.35;;;5.35;;
34200;SDS011;20469;55.638;37.670;2023-04-19T07:37:34;14.85;;;5.60;;
34200;SDS011;20469;55.638;37.670;2023-04-19T07:40:02;21.38;;;6.03;;
34200;SDS011;20469;55.638;37.670;2023-04-19T07:42:30;12.90;;;5.10;;
34200;SDS011;20469;55.638;37.670;2023-04-19T07:44:58;11.57;;;4.88;;
34200;SDS011;20469;55.638;37.670;2023-04-19T07:47:25;11.10;;;4.78;;
34200;SDS011;20469;55.638;37.670;2023-04-19T07:49:54;15.27;;;5.35;;
34200;SDS011;20469;55.638;37.670;2023-04-19T07:52:21;14.10;;;5.72;;
34200;SDS011;20469;55.638;37.670;2023-04-19T07:54:48;15.13;;;5.53;;
34200;SDS011;20469;55.638;37.670;2023-04-19T07:57:16;15.57;;;5.82;;
34200;SDS011;20469;55.638;37.670;2023-04-19T07:59:43;14.80;;;5.28;;
34200;SDS011;20469;55.638;37.670;2023-04-19T08:02:10;11.80;;;4.70;;
34200;SDS011;20469;55.638;37.670;2023-04-19T08:04:37;12.85;;;4.70;;
34200;SDS011;20469;55.638;37.670;2023-04-19T08:07:05;9.45;;;4.68;;
34200;SDS011;20469;55.638;37.670;2023-04-19T08:09:34;6.80;;;4.30;;
34200;SDS011;20469;55.638;37.670;2023-04-19T08:12:03;11.32;;;4.88;;
34200;SDS011;20469;55.638;37.670;2023-04-19T08:14:30;10.48;;;5.13;;
34200;SDS011;20469;55.638;37.670;2023-04-19T08:17:17;8.93;;;4.85;;
34200;SDS011;20469;55.638;37.670;2023-04-19T08:19:53;10.35;;;5.22;;
34200;SDS011;20469;55.638;37.670;2023-04-19T08:22:20;8.55;;;4.53;;
34200;SDS011;20469;55.638;37.670;2023-04-19T08:24:48;11.70;;;4.63;;
34200;SDS011;20469;55.638;37.670;2023-04-19T08:27:19;15.02;;;4.85;;
34200;SDS011;20469;55.638;37.670;2023-04-19T08:29:47;8.98;;;4.78;;
34200;SDS011;20469;55.638;37.670;2023-04-19T08:32:14;10.23;;;4.03;;
34200;SDS011;20469;55.638;37.670;2023-04-19T08:34:41;8.88;;;3.80;;
34200;SDS011;20469;55.638;37.670;2023-04-19T08:37:08;7.60;;;4.20;;
34200;SDS011;20469;55.638;37.670;2023-04-19T08:39:36;9.02;;;3.88;;
34200;SDS011;20469;55.638;37.670;2023-04-19T08:42:04;8.68;;;4.53;;
34200;SDS011;20469;55.638;37.670;2023-04-19T08:44:53;8.23;;;4.60;;
34200;SDS011;20469;55.638;37.670;2023-04-19T08:47:43;12.75;;;4.53;;
34200;SDS011;20469;55.638;37.670;2023-04-19T08:50:26;12.50;;;4.55;;
34200;SDS011;20469;55.638;37.670;2023-04-19T08:53:06;11.80;;;3.85;;
34200;SDS011;20469;55.638;37.670;2023-04-19T08:55:39;6.15;;;3.42;;
34200;SDS011;20469;55.638;37.670;2023-04-19T08:58:27;7.88;;;4.13;;
34200;SDS011;20469;55.638;37.670;2023-04-19T09:01:17;10.20;;;4.15;;
34200;SDS011;20469;55.638;37.670;2023-04-19T09:03:59;11.60;;;3.80;;
34200;SDS011;20469;55.638;37.670;2023-04-19T09:06:47;7.82;;;3.80;;
34200;SDS011;20469;55.638;37.670;2023-04-19T09:09:21;6.50;;;3.45;;
34200;SDS011;20469;55.638;37.670;2023-04-19T09:11:55;10.50;;;4.03;;
34200;SDS011;20469;55.638;37.670;2023-04-19T09:14:26;10.35;;;3.83;;
34200;SDS011;20469;55.638;37.670;2023-04-19T09:17:10;11.05;;;3.78;;
34200;SDS011;20469;55.638;37.670;2023-04-19T09:19:45;9.23;;;3.65;;
34200;SDS011;20469;55.638;37.670;2023-04-19T09:22:14;8.02;;;3.65;;
34200;SDS011;20469;55.638;37.670;2023-04-19T09:24:42;7.22;;;3.72;;
34200;SDS011;20469;55.638;37.670;2023-04-19T09:27:12;7.47;;;3.42;;
34200;SDS011;20469;55.638;37.670;2023-04-19T09:30:00;7.28;;;3.58;;
34200;SDS011;20469;55.638;37.670;2023-04-19T09:35:13;5.47;;;3.42;;
34200;SDS011;20469;55.638;37.670;2023-04-19T09:37:40;8.40;;;3.63;;
34200;SDS011;20469;55.638;37.670;2023-04-19T09:40:20;9.52;;;3.10;;
34200;SDS011;20469;55.638;37.670;2023-04-19T09:42:51;9.45;;;3.30;;
34200;SDS011;20469;55.638;37.670;2023-04-19T09:45:21;7.78;;;3.33;;
34200;SDS011;20469;55.638;37.670;2023-04-19T09:48:01;7.88;;;3.42;;
34200;SDS011;20469;55.638;37.670;2023-04-19T09:50:35;7.80;;;3.50;;
34200;SDS011;20469;55.638;37.670;2023-04-19T09:53:26;6.40;;;3.72;;
34200;SDS011;20469;55.638;37.670;2023-04-19T09:55:54;6.55;;;3.30;;
34200;SDS011;20469;55.638;37.670;2023-04-19T09:58:27;6.68;;;3.42;;
34200;SDS011;20469;55.638;37.670;2023-04-19T10:01:14;7.68;;;3.55;;
34200;SDS011;20469;55.638;37.670;2023-04-19T10:03:43;7.22;;;3.83;;
34200;SDS011;20469;55.638;37.670;2023-04-19T10:06:15;7.03;;;3.53;;
34200;SDS011;20469;55.638;37.670;2023-04-19T10:11:15;6.82;;;3.72;;
34200;SDS011;20469;55.638;37.670;2023-04-19T10:13:42;6.82;;;3.67;;
34200;SDS011;20469;55.638;37.670;2023-04-19T10:16:12;8.32;;;4.05;;
34200;SDS011;20469;55.638;37.670;2023-04-19T10:18:46;9.43;;;3.58;;
34200;SDS011;20469;55.638;37.670;2023-04-19T10:21:15;6.88;;;3.63;;
34200;SDS011;20469;55.638;37.670;2023-04-19T10:23:44;7.82;;;3.97;;
34200;SDS011;20469;55.638;37.670;2023-04-19T10:26:12;5.63;;;3.83;;
34200;SDS011;20469;55.638;37.670;2023-04-19T10:28:40;6.35;;;3.75;;
34200;SDS011;20469;55.638;37.670;2023-04-19T10:31:10;11.27;;;4.03;;
34200;SDS011;20469;55.638;37.670;2023-04-19T10:33:39;7.63;;;4.15;;
34200;SDS011;20469;55.638;37.670;2023-04-19T10:36:07;9.30;;;4.20;;
34200;SDS011;20469;55.638;37.670;2023-04-19T10:38:40;7.35;;;3.97;;
34200;SDS011;20469;55.638;37.670;2023-04-19T10:41:15;6.72;;;4.07;;
34200;SDS011;20469;55.638;37.670;2023-04-19T10:48:49;7.55;;;4.20;;
34200;SDS011;20469;55.638;37.670;2023-04-19T10:51:20;7.65;;;4.55;;
34200;SDS011;20469;55.638;37.670;2023-04-19T10:53:57;8.95;;;4.68;;
34200;SDS011;20469;55.638;37.670;2023-04-19T11:04:11;8.43;;;4.60;;
34200;SDS011;20469;55.638;37.670;2023-04-19T11:09:35;6.47;;;4.35;;
34200;SDS011;20469;55.638;37.670;2023-04-19T11:12:05;7.75;;;4.30;;
34200;SDS011;20469;55.638;37.670;2023-04-19T11:14:34;7.57;;;4.70;;
34200;SDS011;20469;55.638;37.670;2023-04-19T11:17:17;6.88;;;4.20;;
34200;SDS011;20469;55.638;37.670;2023-04-19T11:20:00;5.38;;;4.80;;
34200;SDS011;20469;55.638;37.670;2023-04-19T11:22:36;7.97;;;4.40;;
34200;SDS011;20469;55.638;37.670;2023-04-19T11:25:09;8.93;;;4.45;;
34200;SDS011;20469;55.638;37.670;2023-04-19T11:27:50;7.45;;;4.50;;
34200;SDS011;20469;55.638;37.670;2023-04-19T11:30:19;10.10;;;4.07;;
34200;SDS011;20469;55.638;37.670;2023-04-19T11:32:52;7.93;;;4.00;;
34200;SDS011;20469;55.638;37.670;2023-04-19T11:35:21;5.07;;;4.18;;
34200;SDS011;20469;55.638;37.670;2023-04-19T11:37:53;9.63;;;4.10;;
34200;SDS011;20469;55.638;37.670;2023-04-19T11:40:22;15.27;;;4.35;;
34200;SDS011;20469;55.638;37.670;2023-04-19T11:42:54;8.13;;;4.40;;
34200;SDS011;20469;55.638;37.670;2023-04-19T11:48:06;8.57;;;4.03;;
34200;SDS011;20469;55.638;37.670;2023-04-19T11:50:44;7.50;;;4.20;;
34200;SDS011;20469;55.638;37.670;2023-04-19T11:53:16;6.43;;;3.80;;
34200;SDS011;20469;55.638;37.670;2023-04-19T11:55:48;11.85;;;3.92;;
34200;SDS011;20469;55.638;37.670;2023-04-19T11:58:29;6.97;;;4.30;;
34200;SDS011;20469;55.638;37.670;2023-04-19T12:01:06;4.72;;;3.92;;
34200;SDS011;20469;55.638;37.670;2023-04-19T12:03:48;7.22;;;3.83;;
34200;SDS011;20469;55.638;37.670;2023-04-19T12:06:24;8.20;;;4.30;;
34200;SDS011;20469;55.638;37.670;2023-04-19T12:08:57;7.15;;;4.30;;
34200;SDS011;20469;55.638;37.670;2023-04-19T12:11:26;5.10;;;3.90;;
34200;SDS011;20469;55.638;37.670;2023-04-19T12:14:11;6.95;;;3.97;;
34200;SDS011;20469;55.638;37.670;2023-04-19T12:16:41;6.15;;;4.00;;
34200;SDS011;20469;55.638;37.670;2023-04-19T12:19:14;9.10;;;4.15;;
34200;SDS011;20469;55.638;37.670;2023-04-19T12:21:51;10.18;;;4.40;;
34200;SDS011;20469;55.638;37.670;2023-04-19T12:24:18;7.50;;;3.90;;
34200;SDS011;20469;55.638;37.670;2023-04-19T12:26:52;7.15;;;3.83;;
34200;SDS011;20469;55.638;37.670;2023-04-19T12:29:22;9.82;;;4.25;;
34200;SDS011;20469;55.638;37.670;2023-04-19T12:31:49;8.40;;;4.18;;
34200;SDS011;20469;55.638;37.670;2023-04-19T12:34:17;13.05;;;4.53;;
34200;SDS011;20469;55.638;37.670;2023-04-19T12:36:44;6.47;;;3.95;;
34200;SDS011;20469;55.638;37.670;2023-04-19T12:39:11;9.52;;;4.18;;
34200;SDS011;20469;55.638;37.670;2023-04-19T12:41:39;6.28;;;3.95;;
34200;SDS011;20469;55.638;37.670;2023-04-19T12:44:06;5.88;;;3.95;;
34200;SDS011;20469;55.638;37.670;2023-04-19T12:46:33;7.28;;;4.30;;
34200;SDS011;20469;55.638;37.670;2023-04-19T12:49:00;9.68;;;4.00;;
34200;SDS011;20469;55.638;37.670;2023-04-19T12:51:28;10.85;;;4.30;;
34200;SDS011;20469;55.638;37.670;2023-04-19T12:53:55;8.07;;;4.15;;
34200;SDS011;20469;55.638;37.670;2023-04-19T12:56:23;6.95;;;3.88;;
34200;SDS011;20469;55.638;37.670;2023-04-19T12:58:50;8.20;;;3.95;;
34200;SDS011;20469;55.638;37.670;2023-04-19T13:01:18;5.03;;;3.95;;
34200;SDS011;20469;55.638;37.670;2023-04-19T13:03:45;7.07;;;4.03;;
34200;SDS011;20469;55.638;37.670;2023-04-19T13:06:13;6.85;;;3.70;;
34200;SDS011;20469;55.638;37.670;2023-04-19T13:08:42;7.30;;;3.88;;
34200;SDS011;20469;55.638;37.670;2023-04-19T13:11:13;5.88;;;3.88;;
34200;SDS011;20469;55.638;37.670;2023-04-19T13:13:41;7.93;;;4.28;;
34200;SDS011;20469;55.638;37.670;2023-04-19T13:16:08;10.63;;;4.32;;
34200;SDS011;20469;55.638;37.670;2023-04-19T13:18:36;5.95;;;3.90;;
34200;SDS011;20469;55.638;37.670;2023-04-19T13:21:03;5.80;;;3.47;;
34200;SDS011;20469;55.638;37.670;2023-04-19T13:23:36;7.20;;;3.60;;
34200;SDS011;20469;55.638;37.670;2023-04-19T13:26:04;9.13;;;3.80;;
34200;SDS011;20469;55.638;37.670;2023-04-19T13:28:32;8.23;;;3.60;;
34200;SDS011;20469;55.638;37.670;2023-04-19T13:31:02;7.72;;;3.75;;
34200;SDS011;20469;55.638;37.670;2023-04-19T13:33:29;8.57;;;4.10;;
34200;SDS011;20469;55.638;37.670;2023-04-19T13:35:57;9.00;;;3.90;;
34200;SDS011;20469;55.638;37.670;2023-04-19T13:38:24;13.95;;;4.10;;
34200;SDS011;20469;55.638;37.670;2023-04-19T13:40:51;8.90;;;4.20;;
34200;SDS011;20469;55.638;37.670;2023-04-19T13:43:37;8.18;;;3.88;;
34200;SDS011;20469;55.638;37.670;2023-04-19T13:49:08;5.68;;;3.22;;
34200;SDS011;20469;55.638;37.670;2023-04-19T13:51:35;6.05;;;3.45;;
34200;SDS011;20469;55.638;37.670;2023-04-19T13:54:15;9.68;;;3.60;;
34200;SDS011;20469;55.638;37.670;2023-04-19T13:56:46;7.00;;;3.70;;
34200;SDS011;20469;55.638;37.670;2023-04-19T13:59:17;8.45;;;3.72;;
34200;SDS011;20469;55.638;37.670;2023-04-19T14:01:44;7.25;;;3.38;;
34200;SDS011;20469;55.638;37.670;2023-04-19T14:04:30;8.98;;;3.42;;
34200;SDS011;20469;55.638;37.670;2023-04-19T14:06:58;8.35;;;3.70;;
34200;SDS011;20469;55.638;37.670;2023-04-19T14:09:44;9.27;;;3.80;;
34200;SDS011;20469;55.638;37.670;2023-04-19T14:12:11;5.72;;;3.40;;
34200;SDS011;20469;55.638;37.670;2023-04-19T14:14:38;5.68;;;3.42;;
34200;SDS011;20469;55.638;37.670;2023-04-19T14:17:24;6.63;;;3.35;;
34200;SDS011;20469;55.638;37.670;2023-04-19T14:19:52;5.50;;;3.38;;
34200;SDS011;20469;55.638;37.670;2023-04-19T14:22:19;8.15;;;3.60;;
34200;SDS011;20469;55.638;37.670;2023-04-19T14:24:46;5.93;;;3.45;;
34200;SDS011;20469;55.638;37.670;2023-04-19T14:27:32;7.15;;;3.53;;
34200;SDS011;20469;55.638;37.670;2023-04-19T14:29:59;6.75;;;3.40;;
34200;SDS011;20469;55.638;37.670;2023-04-19T14:32:30;7.45;;;3.15;;
34200;SDS011;20469;55.638;37.670;2023-04-19T14:34:58;5.97;;;3.08;;
34200;SDS011;20469;55.638;37.670;2023-04-19T14:37:25;5.25;;;3.33;;
34200;SDS011;20469;55.638;37.670;2023-04-19T14:39:53;5.78;;;3.60;;
34200;SDS011;20469;55.638;37.670;2023-04-19T14:45:24;7.88;;;3.72;;
34200;SDS011;20469;55.638;37.670;2023-04-19T14:48:10;6.22;;;3.33;;
34200;SDS011;20469;55.638;37.670;2023-04-19T14:50:56;7.07;;;3.58;;
34200;SDS011;20469;55.638;37.670;2023-04-19T14:53:23;4.63;;;3.35;;
34200;SDS011;20469;55.638;37.670;2023-04-19T14:55:50;5.78;;;3.40;;
34200;SDS011;20469;55.638;37.670;2023-04-19T14:58:17;8.10;;;3.50;;
34200;SDS011;20469;55.638;37.670;2023-04-19T15:00:45;8.48;;;3.60;;
34200;SDS011;20469;55.638;37.670;2023-04-19T15:03:12;5.82;;;3.55;;
34200;SDS011;20469;55.638;37.670;2023-04-19T15:05:39;7.18;;;3.42;;
34200;SDS011;20469;55.638;37.670;2023-04-19T15:10:56;6.72;;;3.63;;
34200;SDS011;20469;55.638;37.670;2023-04-19T15:13:24;7.00;;;4.07;;